createdAt,value
2023-10-26T00:02:07.540Z,0.87
2023-10-26T00:04:36.250Z,0.80
2023-10-26T00:07:07.312Z,1.07
2023-10-26T00:09:36.153Z,0.90
2023-10-26T00:12:05.593Z,0.90
2023-10-26T00:14:35.670Z,0.90
2023-10-26T00:17:04.584Z,1.20
2023-10-26T00:19:34.018Z,0.90
2023-10-26T00:22:02.823Z,1.20
2023-10-26T00:24:32.889Z,1.03
2023-10-26T00:27:01.732Z,1.10
2023-10-26T00:29:31.026Z,1.67
2023-10-26T00:31:59.768Z,1.17
2023-10-26T00:34:28.620Z,1.63
2023-10-26T00:36:57.397Z,1.30
2023-10-26T00:39:26.287Z,1.43
2023-10-26T00:41:57.210Z,1.10
2023-10-26T00:44:25.917Z,1.00
2023-10-26T00:46:55.928Z,0.90
2023-10-26T00:49:24.727Z,1.20
2023-10-26T00:51:54.729Z,0.80
2023-10-26T00:54:24.335Z,0.90
2023-10-26T00:56:53.149Z,0.70
2023-10-26T00:59:23.432Z,1.00
2023-10-26T01:01:52.832Z,0.70
2023-10-26T01:04:21.532Z,0.80
2023-10-26T01:06:50.214Z,0.80
2023-10-26T01:09:18.945Z,1.00
2023-10-26T01:11:48.144Z,0.73
2023-10-26T01:14:17.941Z,0.80
2023-10-26T01:16:48.109Z,0.80
2023-10-26T01:19:16.797Z,1.10
2023-10-26T01:21:53.801Z,1.10
2023-10-26T01:24:22.827Z,0.83
2023-10-26T01:26:51.566Z,0.70
2023-10-26T01:29:20.776Z,1.10
2023-10-26T01:31:50.347Z,0.93
2023-10-26T01:34:19.112Z,0.90
2023-10-26T01:36:48.019Z,1.03
2023-10-26T01:39:18.865Z,0.93
2023-10-26T01:41:48.588Z,0.90
2023-10-26T01:44:17.329Z,0.80
2023-10-26T01:46:46.015Z,1.00
2023-10-26T01:49:15.036Z,0.83
2023-10-26T01:51:43.716Z,0.87
2023-10-26T01:54:12.926Z,1.40
2023-10-26T01:56:43.105Z,0.80
2023-10-26T01:59:11.778Z,1.10
2023-10-26T02:01:40.408Z,0.90
2023-10-26T02:04:09.066Z,0.90
2023-10-26T02:06:37.835Z,0.90
2023-10-26T02:09:06.694Z,0.80
2023-10-26T02:11:35.403Z,1.40
2023-10-26T02:14:05.543Z,1.10
2023-10-26T02:16:34.260Z,1.00
2023-10-26T02:19:03.145Z,1.00
2023-10-26T02:21:32.641Z,0.70
2023-10-26T02:24:01.309Z,0.80
2023-10-26T02:26:30.047Z,1.10
2023-10-26T02:28:58.730Z,1.37
2023-10-26T02:31:28.755Z,1.00
2023-10-26T02:33:57.470Z,1.00
2023-10-26T02:36:26.190Z,0.80
2023-10-26T02:38:54.892Z,1.10
2023-10-26T02:41:23.739Z,1.00
2023-10-26T02:43:52.444Z,0.90
2023-10-26T02:46:21.140Z,1.00
2023-10-26T02:48:51.254Z,0.80
2023-10-26T02:51:20.069Z,0.87
2023-10-26T02:53:48.859Z,1.03
2023-10-26T02:56:17.604Z,1.30
2023-10-26T02:58:46.434Z,1.10
2023-10-26T03:01:15.226Z,1.50
2023-10-26T03:03:44.142Z,0.90
2023-10-26T03:06:14.432Z,1.00
2023-10-26T03:08:43.067Z,1.20
2023-10-26T03:11:11.776Z,1.13
2023-10-26T03:13:40.482Z,1.00
2023-10-26T03:16:09.188Z,1.20
2023-10-26T03:18:38.265Z,1.30
2023-10-26T03:21:07.154Z,1.27
2023-10-26T03:23:37.802Z,1.20
2023-10-26T03:26:11.305Z,1.27
2023-10-26T03:28:40.025Z,1.10
2023-10-26T03:31:12.639Z,1.07
2023-10-26T03:33:41.646Z,1.10
2023-10-26T03:36:15.516Z,1.93
2023-10-26T03:38:46.080Z,1.33
2023-10-26T03:41:15.239Z,1.00
2023-10-26T03:43:44.089Z,1.30
2023-10-26T03:46:12.751Z,1.13
2023-10-26T03:48:41.480Z,1.00
2023-10-26T03:51:10.269Z,1.20
2023-10-26T03:53:39.082Z,1.00
2023-10-26T03:56:09.289Z,0.90
2023-10-26T03:58:38.007Z,1.03
2023-10-26T04:01:06.646Z,1.20
2023-10-26T04:03:35.421Z,0.90
2023-10-26T04:06:04.291Z,1.10
2023-10-26T04:08:33.179Z,1.23
2023-10-26T04:11:01.877Z,1.77
2023-10-26T04:13:32.550Z,1.27
2023-10-26T04:16:01.838Z,1.10
2023-10-26T04:18:31.131Z,1.20
2023-10-26T04:20:59.915Z,1.10
2023-10-26T04:23:28.672Z,1.23
2023-10-26T04:25:57.484Z,1.00
2023-10-26T04:28:26.298Z,1.40
2023-10-26T04:30:56.401Z,1.60
2023-10-26T04:33:25.246Z,1.50
2023-10-26T04:35:56.298Z,1.70
2023-10-26T04:38:25.091Z,1.87
2023-10-26T04:40:53.832Z,1.33
2023-10-26T04:43:22.531Z,1.40
2023-10-26T04:45:51.309Z,1.53
2023-10-26T04:48:21.374Z,1.57
2023-10-26T04:50:50.531Z,1.37
2023-10-26T04:53:19.294Z,1.80
2023-10-26T04:55:47.955Z,1.20
2023-10-26T04:58:16.673Z,1.10
2023-10-26T05:00:45.378Z,1.13
2023-10-26T05:03:14.222Z,1.20
2023-10-26T05:05:44.391Z,1.40
2023-10-26T05:08:13.180Z,1.17
2023-10-26T05:10:42.639Z,1.87
2023-10-26T05:13:11.707Z,1.40
2023-10-26T05:15:40.560Z,1.63
2023-10-26T05:18:09.454Z,1.37
2023-10-26T05:20:39.895Z,1.77
2023-10-26T05:23:09.981Z,1.50
2023-10-26T05:25:39.122Z,1.50
2023-10-26T05:28:07.935Z,1.87
2023-10-26T05:30:36.744Z,2.00
2023-10-26T05:33:05.865Z,2.10
2023-10-26T05:35:34.856Z,1.73
2023-10-26T05:38:04.931Z,2.00
2023-10-26T05:40:35.055Z,2.20
2023-10-26T05:43:04.168Z,1.73
2023-10-26T05:45:38.315Z,1.60
2023-10-26T05:48:10.052Z,2.23
2023-10-26T05:50:42.884Z,2.80
2023-10-26T05:53:11.861Z,1.73
2023-10-26T05:55:42.188Z,2.20
2023-10-26T05:58:11.305Z,2.03
2023-10-26T06:00:40.422Z,1.87
2023-10-26T06:03:09.470Z,1.60
2023-10-26T06:05:38.234Z,1.90
2023-10-26T06:08:07.129Z,1.63
2023-10-26T06:10:35.862Z,1.53
2023-10-26T06:13:06.049Z,1.50
2023-10-26T06:15:34.807Z,1.90
2023-10-26T06:18:03.595Z,1.87
2023-10-26T06:20:32.305Z,1.80
2023-10-26T06:23:01.140Z,2.30
2023-10-26T06:25:30.345Z,2.03
2023-10-26T06:27:59.105Z,2.53
2023-10-26T06:30:29.465Z,2.67
2023-10-26T06:33:00.242Z,2.70
2023-10-26T06:35:29.189Z,1.87
2023-10-26T06:37:57.968Z,2.23
2023-10-26T06:40:26.695Z,2.60
2023-10-26T06:42:55.434Z,2.20
2023-10-26T06:45:24.227Z,1.87
2023-10-26T06:47:54.483Z,2.40
2023-10-26T06:50:24.447Z,2.00
2023-10-26T06:52:53.341Z,2.07
2023-10-26T06:55:30.057Z,2.07
2023-10-26T06:57:59.383Z,2.43
2023-10-26T07:00:28.167Z,2.37
2023-10-26T07:02:58.663Z,2.40
2023-10-26T07:05:27.877Z,2.43
2023-10-26T07:07:56.637Z,2.20
2023-10-26T07:10:25.465Z,2.40
2023-10-26T07:12:54.314Z,2.30
2023-10-26T07:15:23.181Z,2.40
2023-10-26T07:17:52.036Z,2.67
2023-10-26T07:20:22.289Z,2.50
2023-10-26T07:22:51.248Z,2.27
2023-10-26T07:25:20.128Z,2.43
2023-10-26T07:27:48.912Z,2.73
2023-10-26T07:30:17.885Z,2.30
2023-10-26T07:32:46.719Z,3.00
2023-10-26T07:35:16.535Z,3.03
2023-10-26T07:37:55.152Z,2.60
2023-10-26T07:40:34.639Z,1.60
2023-10-26T07:43:03.454Z,2.20
2023-10-26T07:45:32.360Z,2.60
2023-10-26T07:48:01.810Z,3.10
2023-10-26T07:50:31.256Z,2.67
2023-10-26T07:53:01.377Z,3.50
2023-10-26T07:55:30.247Z,4.77
2023-10-26T07:57:59.023Z,2.67
2023-10-26T08:00:27.841Z,2.63
2023-10-26T08:02:56.707Z,3.13
2023-10-26T08:05:25.520Z,2.77
2023-10-26T08:07:54.453Z,3.50
2023-10-26T08:10:27.413Z,3.17
2023-10-26T08:12:56.507Z,3.50
2023-10-26T08:16:10.702Z,3.13
2023-10-26T08:18:15.026Z,3.47
2023-10-26T08:20:43.979Z,2.80
2023-10-26T08:23:12.846Z,2.83
2023-10-26T08:25:43.183Z,3.20
2023-10-26T08:28:12.108Z,2.63
2023-10-26T08:30:40.966Z,2.87
2023-10-26T08:33:11.106Z,2.17
2023-10-26T08:35:42.079Z,2.47
2023-10-26T08:38:10.931Z,3.10
2023-10-26T08:40:39.674Z,2.93
2023-10-26T08:43:10.136Z,3.20
2023-10-26T08:45:39.572Z,3.20
2023-10-26T08:48:09.629Z,2.97
2023-10-26T08:50:39.536Z,3.43
2023-10-26T08:53:08.610Z,4.40
2023-10-26T08:55:38.903Z,6.90
2023-10-26T08:58:09.623Z,5.90
2023-10-26T09:00:39.420Z,1.90
2023-10-26T09:03:08.428Z,1.93
2023-10-26T09:05:53.216Z,2.03
2023-10-26T09:08:24.046Z,2.80
2023-10-26T09:10:53.144Z,2.50
2023-10-26T09:13:28.070Z,2.10
2023-10-26T09:16:00.377Z,2.03
2023-10-26T09:18:29.729Z,1.50
2023-10-26T09:21:06.621Z,1.97
2023-10-26T09:23:36.521Z,2.93
2023-10-26T09:26:06.456Z,3.13
2023-10-26T09:28:52.739Z,1.93
2023-10-26T09:31:22.013Z,2.33
2023-10-26T09:33:51.823Z,1.83
2023-10-26T09:36:21.699Z,1.97
2023-10-26T09:38:50.792Z,1.80
2023-10-26T09:41:21.379Z,2.33
2023-10-26T09:43:50.445Z,2.10
2023-10-26T09:47:10.235Z,2.60
2023-10-26T09:49:40.925Z,2.07
2023-10-26T09:52:27.660Z,2.70
2023-10-26T09:58:12.370Z,3.30
2023-10-26T10:01:12.068Z,2.77
2023-10-26T10:03:46.167Z,2.57
2023-10-26T10:07:01.979Z,3.07
2023-10-26T10:09:32.780Z,4.50
2023-10-26T10:12:32.414Z,3.03
2023-10-26T10:15:22.585Z,2.90
2023-10-26T10:18:05.037Z,3.27
2023-10-26T10:20:35.501Z,4.00
2023-10-26T10:23:04.964Z,4.17
2023-10-26T10:26:19.732Z,3.63
2023-10-26T10:28:53.868Z,3.93
2023-10-26T10:31:26.135Z,3.90
2023-10-26T10:34:06.882Z,4.10
2023-10-26T10:37:09.665Z,3.70
2023-10-26T10:39:38.706Z,4.10
2023-10-26T10:42:13.343Z,3.83
2023-10-26T10:44:43.522Z,4.30
2023-10-26T10:47:12.503Z,3.87
2023-10-26T10:49:41.440Z,5.23
2023-10-26T10:52:15.441Z,3.27
2023-10-26T10:54:56.701Z,3.50
2023-10-26T10:57:35.306Z,2.97
2023-10-26T11:00:05.007Z,4.00
2023-10-26T11:02:34.097Z,3.33
2023-10-26T11:05:15.724Z,3.83
2023-10-26T11:07:48.223Z,4.30
2023-10-26T11:10:17.099Z,4.40
2023-10-26T11:12:52.751Z,3.80
2023-10-26T11:15:22.038Z,4.97
2023-10-26T11:17:51.535Z,3.83
2023-10-26T11:20:39.577Z,4.00
2023-10-26T11:23:10.085Z,3.03
2023-10-26T11:25:39.688Z,3.47
2023-10-26T11:28:10.818Z,3.40
2023-10-26T11:30:49.771Z,3.57
2023-10-26T11:33:31.187Z,3.70
2023-10-26T11:36:00.258Z,3.50
2023-10-26T11:38:29.223Z,4.00
2023-10-26T11:40:57.976Z,3.47
2023-10-26T11:43:35.599Z,3.37
2023-10-26T11:46:05.447Z,3.20
2023-10-26T11:48:35.069Z,3.80
2023-10-26T11:51:07.897Z,3.50
2023-10-26T11:53:40.140Z,2.90
2023-10-26T11:56:09.019Z,3.33
2023-10-26T11:58:39.632Z,2.60
2023-10-26T12:01:08.528Z,2.20
2023-10-26T12:03:37.884Z,2.30
2023-10-26T12:06:07.344Z,2.53
2023-10-26T12:08:36.111Z,3.20
2023-10-26T12:11:05.363Z,2.83
2023-10-26T12:13:35.854Z,2.60
2023-10-26T12:16:06.941Z,2.83
2023-10-26T12:18:37.394Z,3.00
2023-10-26T12:21:06.209Z,3.10
2023-10-26T12:23:35.055Z,3.03
2023-10-26T12:26:04.040Z,2.57
2023-10-26T12:28:32.914Z,3.43
2023-10-26T12:31:01.787Z,4.03
2023-10-26T12:33:31.892Z,5.53
2023-10-26T12:36:01.832Z,2.70
2023-10-26T12:38:30.575Z,2.50
2023-10-26T12:40:59.417Z,2.37
2023-10-26T12:43:28.172Z,1.97
2023-10-26T12:45:56.964Z,2.53
2023-10-26T12:48:25.791Z,2.53
2023-10-26T12:50:55.905Z,1.97
2023-10-26T12:53:24.653Z,2.33
2023-10-26T12:55:53.462Z,2.20
2023-10-26T12:58:22.258Z,2.00
2023-10-26T13:00:51.140Z,2.23
2023-10-26T13:03:19.960Z,2.43
2023-10-26T13:05:48.792Z,2.27
2023-10-26T13:08:19.099Z,1.97
2023-10-26T13:10:48.030Z,1.93
2023-10-26T13:13:16.826Z,1.63
2023-10-26T13:15:45.636Z,1.37
2023-10-26T13:18:14.364Z,1.97
2023-10-26T13:20:43.112Z,2.53
2023-10-26T13:23:12.417Z,1.70
2023-10-26T13:25:42.776Z,1.50
2023-10-26T13:28:12.815Z,1.57
2023-10-26T13:30:41.660Z,1.70
2023-10-26T13:33:11.029Z,1.73
2023-10-26T13:35:39.878Z,1.70
2023-10-26T13:38:13.392Z,1.67
2023-10-26T13:40:44.689Z,2.17
2023-10-26T13:43:16.826Z,1.60
2023-10-26T13:45:46.320Z,2.20
2023-10-26T13:48:16.135Z,1.90
2023-10-26T13:50:48.576Z,2.40
2023-10-26T13:53:17.927Z,2.53
2023-10-26T13:55:48.127Z,2.67
2023-10-26T13:58:17.008Z,2.97
2023-10-26T14:00:45.823Z,2.70
2023-10-26T14:03:14.619Z,2.50
2023-10-26T14:05:52.100Z,2.40
2023-10-26T14:08:21.028Z,2.40
2023-10-26T14:11:03.701Z,2.63
2023-10-26T14:13:32.660Z,3.07
2023-10-26T14:16:01.762Z,2.57
2023-10-26T14:18:30.710Z,2.53
2023-10-26T14:20:59.575Z,2.20
2023-10-26T14:23:28.416Z,2.70
2023-10-26T14:25:57.344Z,3.37
2023-10-26T14:28:27.569Z,2.43
2023-10-26T14:30:56.461Z,2.47
2023-10-26T14:33:25.415Z,2.30
2023-10-26T14:35:54.422Z,2.53
2023-10-26T14:38:23.218Z,1.90
2023-10-26T14:40:57.434Z,2.97
2023-10-26T14:43:28.324Z,2.73
2023-10-26T14:45:57.354Z,2.33
2023-10-26T14:48:26.351Z,2.70
2023-10-26T14:50:59.597Z,2.20
2023-10-26T14:53:28.457Z,2.57
2023-10-26T14:56:01.799Z,2.50
2023-10-26T14:58:31.996Z,2.67
2023-10-26T15:01:00.829Z,2.50
2023-10-26T15:03:29.787Z,2.80
2023-10-26T15:06:01.833Z,3.00
2023-10-26T15:08:30.837Z,2.30
2023-10-26T15:11:24.214Z,2.40
2023-10-26T15:13:51.767Z,2.17
2023-10-26T15:16:20.765Z,1.80
2023-10-26T15:18:49.662Z,1.63
2023-10-26T15:21:18.505Z,1.90
2023-10-26T15:23:47.204Z,1.63
2023-10-26T15:26:16.003Z,1.40
2023-10-26T15:28:44.882Z,1.60
2023-10-26T15:31:15.064Z,1.40
2023-10-26T15:33:43.872Z,2.00
2023-10-26T15:36:12.708Z,1.30
2023-10-26T15:38:43.100Z,2.07
2023-10-26T15:41:12.520Z,1.87
2023-10-26T15:43:41.298Z,1.60
2023-10-26T15:46:10.158Z,1.73
2023-10-26T15:49:33.006Z,1.50
2023-10-26T15:51:29.073Z,2.17
2023-10-26T15:53:57.886Z,1.70
2023-10-26T15:56:26.651Z,1.53
2023-10-26T15:58:55.586Z,1.77
2023-10-26T16:01:25.234Z,1.53
2023-10-26T16:03:55.404Z,1.90
2023-10-26T16:06:24.117Z,1.67
2023-10-26T16:08:52.910Z,1.53
2023-10-26T16:11:21.780Z,2.40
2023-10-26T16:13:50.613Z,2.93
2023-10-26T16:16:19.535Z,2.20
2023-10-26T16:18:48.398Z,1.67
2023-10-26T16:21:18.666Z,1.90
2023-10-26T16:23:47.423Z,1.77
2023-10-26T16:26:16.271Z,1.80
2023-10-26T16:28:47.029Z,2.90
2023-10-26T16:31:17.211Z,2.20
2023-10-26T16:33:46.097Z,2.27
2023-10-26T16:36:14.823Z,2.33
2023-10-26T16:38:45.018Z,2.13
2023-10-26T16:41:13.852Z,3.00
2023-10-26T16:43:44.019Z,2.80
2023-10-26T16:46:14.097Z,2.50
2023-10-26T16:48:44.103Z,3.23
2023-10-26T16:51:12.908Z,3.13
2023-10-26T16:53:42.116Z,3.40
2023-10-26T16:56:12.406Z,5.33
2023-10-26T16:58:41.257Z,3.67
2023-10-26T17:01:11.513Z,3.23
2023-10-26T17:03:40.856Z,3.43
2023-10-26T17:06:11.541Z,2.63
2023-10-26T17:08:40.392Z,4.60
2023-10-26T17:11:12.138Z,3.50
2023-10-26T17:13:40.910Z,3.50
2023-10-26T17:16:10.631Z,2.97
2023-10-26T17:18:39.454Z,2.80
2023-10-26T17:21:09.286Z,2.30
2023-10-26T17:23:38.095Z,2.70
2023-10-26T17:26:06.874Z,2.57
2023-10-26T17:28:37.050Z,2.53
2023-10-26T17:31:07.047Z,2.80
2023-10-26T17:33:36.298Z,2.70
2023-10-26T17:36:05.963Z,2.90
2023-10-26T17:38:34.817Z,3.47
2023-10-26T17:41:10.103Z,2.70
2023-10-26T17:43:40.366Z,2.63
2023-10-26T17:46:09.759Z,2.40
2023-10-26T17:48:38.816Z,2.83
2023-10-26T17:51:10.008Z,2.60
2023-10-26T17:53:42.872Z,2.40
2023-10-26T17:56:14.268Z,2.70
2023-10-26T17:58:44.401Z,2.27
2023-10-26T18:01:14.901Z,2.10
2023-10-26T18:03:43.917Z,1.90
2023-10-26T18:06:12.780Z,2.53
2023-10-26T18:08:42.124Z,2.93
2023-10-26T18:11:10.972Z,2.80
2023-10-26T18:13:39.902Z,2.70
2023-10-26T18:16:10.472Z,2.27
2023-10-26T18:18:40.278Z,2.00
2023-10-26T18:21:09.831Z,2.33
2023-10-26T18:23:38.988Z,2.53
2023-10-26T18:26:09.357Z,2.77
2023-10-26T18:28:38.980Z,2.87
2023-10-26T18:31:12.331Z,2.27
2023-10-26T18:33:42.368Z,2.43
2023-10-26T18:36:12.628Z,2.10
2023-10-26T18:38:42.577Z,2.70
2023-10-26T18:41:18.495Z,2.20
2023-10-26T18:43:47.850Z,2.10
2023-10-26T18:46:18.392Z,1.93
2023-10-26T18:48:47.812Z,1.63
2023-10-26T18:51:17.869Z,1.83
2023-10-26T18:53:47.280Z,2.33
2023-10-26T18:56:16.929Z,2.97
2023-10-26T18:58:46.234Z,1.97
2023-10-26T19:01:15.358Z,2.70
2023-10-26T19:04:00.737Z,3.07
2023-10-26T19:06:31.713Z,4.23
2023-10-26T19:09:00.756Z,2.60
2023-10-26T19:11:30.042Z,3.20
2023-10-26T19:13:59.361Z,3.20
2023-10-26T19:16:28.183Z,3.10
2023-10-26T19:18:58.623Z,3.20
2023-10-26T19:21:28.553Z,3.60
2023-10-26T19:23:57.537Z,3.27
2023-10-26T19:26:26.378Z,3.10
2023-10-26T19:28:55.511Z,3.33
2023-10-26T19:31:24.996Z,3.47
2023-10-26T19:33:53.964Z,4.10
2023-10-26T19:36:24.431Z,4.80
2023-10-26T19:38:53.474Z,4.20
2023-10-26T19:41:22.566Z,2.87
2023-10-26T19:43:51.461Z,3.00
2023-10-26T19:46:20.497Z,2.90
2023-10-26T19:48:49.720Z,3.60
2023-10-26T19:51:19.118Z,2.90
2023-10-26T19:53:49.321Z,2.80
2023-10-26T19:56:18.564Z,2.87
2023-10-26T19:58:47.824Z,2.40
2023-10-26T20:01:16.751Z,2.90
2023-10-26T20:03:46.961Z,2.07
2023-10-26T20:06:16.099Z,2.70
2023-10-26T20:08:44.895Z,3.33
2023-10-26T20:11:15.050Z,2.87
2023-10-26T20:13:43.871Z,2.20
2023-10-26T20:16:12.934Z,2.73
2023-10-26T20:18:43.016Z,2.50
2023-10-26T20:21:12.030Z,5.30
2023-10-26T20:23:40.790Z,7.60
2023-10-26T20:26:09.685Z,3.20
2023-10-26T20:28:39.854Z,2.53
2023-10-26T20:31:08.707Z,2.87
2023-10-26T20:33:37.517Z,3.60
2023-10-26T20:36:06.937Z,2.60
2023-10-26T20:38:35.696Z,3.53
2023-10-26T20:41:04.642Z,3.30
2023-10-26T20:43:33.445Z,3.50
2023-10-26T20:46:03.761Z,3.90
2023-10-26T20:48:33.127Z,3.40
2023-10-26T20:51:07.455Z,3.20
2023-10-26T20:53:36.495Z,4.20
2023-10-26T20:56:06.619Z,3.93
2023-10-26T20:58:36.061Z,3.23
2023-10-26T21:01:11.094Z,4.60
2023-10-26T21:03:40.713Z,4.53
2023-10-26T21:06:11.125Z,4.93
2023-10-26T21:08:40.738Z,4.63
2023-10-26T21:11:14.154Z,6.27
2023-10-26T21:13:43.137Z,4.90
2023-10-26T21:16:13.487Z,4.70
2023-10-26T21:18:43.044Z,5.20
2023-10-26T21:21:12.167Z,4.27
2023-10-26T21:23:41.416Z,3.80
2023-10-26T21:26:12.105Z,3.67
2023-10-26T21:28:42.816Z,3.73
2023-10-26T21:31:13.572Z,3.87
2023-10-26T21:33:42.408Z,3.53
2023-10-26T21:36:12.445Z,2.90
2023-10-26T21:38:41.446Z,3.43
2023-10-26T21:41:10.745Z,3.10
2023-10-26T21:43:39.627Z,3.13
2023-10-26T21:46:09.403Z,2.97
2023-10-26T21:48:39.693Z,3.27
2023-10-26T21:51:09.898Z,2.97
2023-10-26T21:53:40.102Z,4.00
2023-10-26T21:56:09.054Z,3.00
2023-10-26T21:58:37.956Z,3.60
2023-10-26T22:01:08.224Z,3.17
2023-10-26T22:03:37.131Z,3.37
2023-10-26T22:06:07.675Z,3.23
2023-10-26T22:08:36.449Z,3.30
2023-10-26T22:11:05.485Z,3.40
2023-10-26T22:13:34.347Z,4.27
2023-10-26T22:16:03.190Z,3.07
2023-10-26T22:18:32.034Z,3.00
2023-10-26T22:21:03.315Z,3.57
2023-10-26T22:23:33.504Z,3.70
2023-10-26T22:26:03.400Z,3.13
2023-10-26T22:28:32.130Z,3.13
2023-10-26T22:31:04.913Z,2.93
2023-10-26T22:33:38.191Z,3.57
2023-10-26T22:36:07.770Z,3.70
2023-10-26T22:38:38.056Z,3.40
2023-10-26T22:41:10.815Z,3.23
2023-10-26T22:43:39.716Z,3.33
2023-10-26T22:46:08.551Z,3.30
2023-10-26T22:48:37.269Z,3.37
2023-10-26T22:51:06.200Z,3.53
2023-10-26T22:53:35.071Z,7.97
2023-10-26T22:56:05.832Z,10.50
2023-10-26T22:58:34.603Z,6.60
2023-10-26T23:01:06.347Z,3.73
2023-10-26T23:03:35.099Z,3.80
2023-10-26T23:06:04.385Z,3.57
2023-10-26T23:08:34.311Z,3.87
2023-10-26T23:11:03.142Z,3.77
2023-10-26T23:13:33.259Z,3.90
2023-10-26T23:16:02.136Z,4.13
2023-10-26T23:18:31.137Z,4.80
2023-10-26T23:20:59.826Z,5.27
2023-10-26T23:23:28.580Z,4.67
2023-10-26T23:25:57.367Z,4.53
2023-10-26T23:28:26.236Z,4.60
2023-10-26T23:30:56.400Z,6.70
2023-10-26T23:33:25.133Z,5.57
2023-10-26T23:35:57.742Z,4.40
2023-10-26T23:38:27.854Z,4.70
2023-10-26T23:40:56.574Z,4.10
2023-10-26T23:43:25.465Z,4.27
2023-10-26T23:45:55.356Z,3.87
2023-10-26T23:48:25.538Z,3.90
2023-10-26T23:50:54.594Z,3.30
2023-10-26T23:53:23.509Z,2.93
2023-10-26T23:55:52.232Z,3.13
2023-10-26T23:58:20.903Z,3.10
